sensor_id;sensor_type;location;lat;lon;timestamp;P1;durP1;ratioP1;P2;durP2;ratioP2
76900;SDS011;65859;43.020;25.096;2023-02-12T00:01:01;45.08;;;25.88;;
76900;SDS011;65859;43.020;25.096;2023-02-12T00:03:31;44.50;;;23.77;;
76900;SDS011;65859;43.020;25.096;2023-02-12T00:05:59;48.25;;;25.10;;
76900;SDS011;65859;43.020;25.096;2023-02-12T00:08:26;45.95;;;25.40;;
76900;SDS011;65859;43.020;25.096;2023-02-12T00:10:53;46.70;;;24.65;;
76900;SDS011;65859;43.020;25.096;2023-02-12T00:13:19;50.20;;;25.95;;
76900;SDS011;65859;43.020;25.096;2023-02-12T00:15:46;48.80;;;24.95;;
76900;SDS011;65859;43.020;25.096;2023-02-12T00:18:12;79.20;;;36.83;;
76900;SDS011;65859;43.020;25.096;2023-02-12T00:20:39;62.20;;;28.58;;
76900;SDS011;65859;43.020;25.096;2023-02-12T00:23:06;62.05;;;31.58;;
76900;SDS011;65859;43.020;25.096;2023-02-12T00:25:32;53.17;;;28.20;;
76900;SDS011;65859;43.020;25.096;2023-02-12T00:28:00;55.55;;;29.33;;
76900;SDS011;65859;43.020;25.096;2023-02-12T00:30:27;71.75;;;37.42;;
76900;SDS011;65859;43.020;25.096;2023-02-12T00:32:53;68.43;;;35.00;;
76900;SDS011;65859;43.020;25.096;2023-02-12T00:35:19;58.33;;;30.23;;
76900;SDS011;65859;43.020;25.096;2023-02-12T00:37:46;59.97;;;30.27;;
76900;SDS011;65859;43.020;25.096;2023-02-12T00:40:12;55.50;;;29.05;;
76900;SDS011;65859;43.020;25.096;2023-02-12T00:42:38;62.03;;;32.00;;
76900;SDS011;65859;43.020;25.096;2023-02-12T00:45:05;48.85;;;27.92;;
76900;SDS011;65859;43.020;25.096;2023-02-12T00:47:32;49.40;;;26.92;;
76900;SDS011;65859;43.020;25.096;2023-02-12T00:49:58;47.92;;;25.15;;
76900;SDS011;65859;43.020;25.096;2023-02-12T00:52:24;53.30;;;27.80;;
76900;SDS011;65859;43.020;25.096;2023-02-12T00:54:51;45.13;;;23.90;;
76900;SDS011;65859;43.020;25.096;2023-02-12T00:57:17;47.95;;;25.90;;
76900;SDS011;65859;43.020;25.096;2023-02-12T00:59:44;47.22;;;24.25;;
76900;SDS011;65859;43.020;25.096;2023-02-12T01:02:11;44.95;;;23.10;;
76900;SDS011;65859;43.020;25.096;2023-02-12T01:04:38;43.33;;;23.52;;
76900;SDS011;65859;43.020;25.096;2023-02-12T01:07:04;44.92;;;22.55;;
76900;SDS011;65859;43.020;25.096;2023-02-12T01:09:30;47.00;;;26.83;;
76900;SDS011;65859;43.020;25.096;2023-02-12T01:11:57;44.63;;;25.73;;
76900;SDS011;65859;43.020;25.096;2023-02-12T01:14:23;48.95;;;27.48;;
76900;SDS011;65859;43.020;25.096;2023-02-12T01:16:49;56.78;;;28.75;;
76900;SDS011;65859;43.020;25.096;2023-02-12T01:19:16;51.58;;;27.92;;
76900;SDS011;65859;43.020;25.096;2023-02-12T01:21:42;46.30;;;24.42;;
76900;SDS011;65859;43.020;25.096;2023-02-12T01:24:08;49.58;;;25.42;;
76900;SDS011;65859;43.020;25.096;2023-02-12T01:26:35;44.97;;;25.63;;
76900;SDS011;65859;43.020;25.096;2023-02-12T01:29:03;48.90;;;25.77;;
76900;SDS011;65859;43.020;25.096;2023-02-12T01:31:34;57.10;;;28.83;;
76900;SDS011;65859;43.020;25.096;2023-02-12T01:34:02;46.17;;;25.50;;
76900;SDS011;65859;43.020;25.096;2023-02-12T01:36:30;52.92;;;27.05;;
76900;SDS011;65859;43.020;25.096;2023-02-12T01:38:57;55.47;;;28.30;;
76900;SDS011;65859;43.020;25.096;2023-02-12T01:41:28;56.83;;;29.40;;
76900;SDS011;65859;43.020;25.096;2023-02-12T01:46:35;57.58;;;30.58;;
76900;SDS011;65859;43.020;25.096;2023-02-12T01:49:03;57.90;;;30.48;;
76900;SDS011;65859;43.020;25.096;2023-02-12T01:51:32;56.28;;;29.83;;
76900;SDS011;65859;43.020;25.096;2023-02-12T01:54:00;57.80;;;30.58;;
76900;SDS011;65859;43.020;25.096;2023-02-12T01:56:30;58.13;;;29.15;;
76900;SDS011;65859;43.020;25.096;2023-02-12T01:58:57;55.25;;;28.83;;
76900;SDS011;65859;43.020;25.096;2023-02-12T02:01:25;55.53;;;29.17;;
76900;SDS011;65859;43.020;25.096;2023-02-12T02:03:56;47.50;;;27.10;;
76900;SDS011;65859;43.020;25.096;2023-02-12T02:06:37;48.55;;;26.48;;
76900;SDS011;65859;43.020;25.096;2023-02-12T02:09:10;52.25;;;27.27;;
76900;SDS011;65859;43.020;25.096;2023-02-12T02:11:37;59.25;;;27.23;;
76900;SDS011;65859;43.020;25.096;2023-02-12T02:14:22;63.80;;;31.08;;
76900;SDS011;65859;43.020;25.096;2023-02-12T02:30:02;37.13;;;20.73;;
76900;SDS011;65859;43.020;25.096;2023-02-12T02:35:25;41.35;;;22.25;;
76900;SDS011;65859;43.020;25.096;2023-02-12T02:37:59;39.03;;;18.48;;
76900;SDS011;65859;43.020;25.096;2023-02-12T02:41:14;38.13;;;20.05;;
76900;SDS011;65859;43.020;25.096;2023-02-12T02:43:29;43.47;;;22.17;;
76900;SDS011;65859;43.020;25.096;2023-02-12T02:46:10;40.78;;;18.73;;
76900;SDS011;65859;43.020;25.096;2023-02-12T02:49:01;48.57;;;24.53;;
76900;SDS011;65859;43.020;25.096;2023-02-12T02:51:36;40.88;;;21.65;;
76900;SDS011;65859;43.020;25.096;2023-02-12T02:54:07;44.53;;;21.65;;
76900;SDS011;65859;43.020;25.096;2023-02-12T02:56:54;43.40;;;22.75;;
76900;SDS011;65859;43.020;25.096;2023-02-12T02:59:29;42.90;;;22.43;;
76900;SDS011;65859;43.020;25.096;2023-02-12T03:02:03;48.85;;;22.45;;
76900;SDS011;65859;43.020;25.096;2023-02-12T03:05:09;44.80;;;20.90;;
76900;SDS011;65859;43.020;25.096;2023-02-12T03:07:47;38.22;;;21.25;;
76900;SDS011;65859;43.020;25.096;2023-02-12T03:10:26;41.67;;;22.95;;
76900;SDS011;65859;43.020;25.096;2023-02-12T03:18:18;42.53;;;22.02;;
76900;SDS011;65859;43.020;25.096;2023-02-12T03:20:51;43.97;;;21.27;;
76900;SDS011;65859;43.020;25.096;2023-02-12T03:23:23;58.85;;;25.98;;
76900;SDS011;65859;43.020;25.096;2023-02-12T03:25:55;49.50;;;25.02;;
76900;SDS011;65859;43.020;25.096;2023-02-12T03:28:30;44.13;;;22.38;;
76900;SDS011;65859;43.020;25.096;2023-02-12T03:33:53;38.42;;;19.55;;
76900;SDS011;65859;43.020;25.096;2023-02-12T03:37:30;50.95;;;27.05;;
76900;SDS011;65859;43.020;25.096;2023-02-12T03:39:48;37.97;;;21.33;;
76900;SDS011;65859;43.020;25.096;2023-02-12T03:42:25;41.17;;;20.45;;
76900;SDS011;65859;43.020;25.096;2023-02-12T03:53:15;38.55;;;20.17;;
76900;SDS011;65859;43.020;25.096;2023-02-12T03:55:42;42.00;;;21.33;;
76900;SDS011;65859;43.020;25.096;2023-02-12T03:58:14;60.65;;;30.35;;
76900;SDS011;65859;43.020;25.096;2023-02-12T04:00:45;42.50;;;21.75;;
76900;SDS011;65859;43.020;25.096;2023-02-12T04:03:12;51.17;;;26.33;;
76900;SDS011;65859;43.020;25.096;2023-02-12T04:05:38;61.60;;;28.83;;
76900;SDS011;65859;43.020;25.096;2023-02-12T04:08:06;43.05;;;23.40;;
76900;SDS011;65859;43.020;25.096;2023-02-12T04:10:51;52.55;;;26.35;;
76900;SDS011;65859;43.020;25.096;2023-02-12T04:13:41;38.15;;;20.63;;
76900;SDS011;65859;43.020;25.096;2023-02-12T04:16:47;51.90;;;25.85;;
76900;SDS011;65859;43.020;25.096;2023-02-12T04:25:42;29.90;;;14.75;;
76900;SDS011;65859;43.020;25.096;2023-02-12T04:31:25;44.10;;;20.17;;
76900;SDS011;65859;43.020;25.096;2023-02-12T04:34:10;35.58;;;16.83;;
76900;SDS011;65859;43.020;25.096;2023-02-12T04:36:58;30.75;;;15.35;;
76900;SDS011;65859;43.020;25.096;2023-02-12T04:39:28;31.45;;;14.90;;
76900;SDS011;65859;43.020;25.096;2023-02-12T04:42:01;28.17;;;14.43;;
76900;SDS011;65859;43.020;25.096;2023-02-12T04:44:29;38.15;;;20.17;;
76900;SDS011;65859;43.020;25.096;2023-02-12T04:46:58;37.65;;;20.15;;
76900;SDS011;65859;43.020;25.096;2023-02-12T04:49:24;35.88;;;18.80;;
76900;SDS011;65859;43.020;25.096;2023-02-12T04:51:51;37.75;;;21.05;;
76900;SDS011;65859;43.020;25.096;2023-02-12T04:54:18;52.25;;;26.27;;
76900;SDS011;65859;43.020;25.096;2023-02-12T04:56:45;45.17;;;23.10;;
76900;SDS011;65859;43.020;25.096;2023-02-12T04:59:12;40.05;;;20.95;;
76900;SDS011;65859;43.020;25.096;2023-02-12T05:01:39;38.88;;;20.60;;
76900;SDS011;65859;43.020;25.096;2023-02-12T05:04:07;46.00;;;23.25;;
76900;SDS011;65859;43.020;25.096;2023-02-12T05:06:36;42.20;;;20.48;;
76900;SDS011;65859;43.020;25.096;2023-02-12T05:09:04;46.83;;;22.77;;
76900;SDS011;65859;43.020;25.096;2023-02-12T05:11:31;53.05;;;29.40;;
76900;SDS011;65859;43.020;25.096;2023-02-12T05:13:59;32.22;;;18.00;;
76900;SDS011;65859;43.020;25.096;2023-02-12T05:16:25;31.20;;;17.90;;
76900;SDS011;65859;43.020;25.096;2023-02-12T05:18:52;46.00;;;21.70;;
76900;SDS011;65859;43.020;25.096;2023-02-12T05:21:18;68.22;;;34.47;;
76900;SDS011;65859;43.020;25.096;2023-02-12T05:23:44;55.55;;;27.00;;
76900;SDS011;65859;43.020;25.096;2023-02-12T05:26:11;30.42;;;14.63;;
76900;SDS011;65859;43.020;25.096;2023-02-12T05:28:39;39.17;;;20.60;;
76900;SDS011;65859;43.020;25.096;2023-02-12T05:31:06;40.40;;;22.33;;
76900;SDS011;65859;43.020;25.096;2023-02-12T05:33:37;33.17;;;17.95;;
76900;SDS011;65859;43.020;25.096;2023-02-12T05:36:10;34.58;;;19.15;;
76900;SDS011;65859;43.020;25.096;2023-02-12T05:38:38;36.67;;;19.00;;
76900;SDS011;65859;43.020;25.096;2023-02-12T05:41:06;39.63;;;20.05;;
76900;SDS011;65859;43.020;25.096;2023-02-12T05:43:34;43.47;;;21.20;;
76900;SDS011;65859;43.020;25.096;2023-02-12T05:46:03;38.53;;;19.83;;
76900;SDS011;65859;43.020;25.096;2023-02-12T05:48:30;48.65;;;24.38;;
76900;SDS011;65859;43.020;25.096;2023-02-12T05:53:57;35.55;;;18.55;;
76900;SDS011;65859;43.020;25.096;2023-02-12T05:56:26;31.63;;;17.88;;
76900;SDS011;65859;43.020;25.096;2023-02-12T05:58:58;32.35;;;16.75;;
76900;SDS011;65859;43.020;25.096;2023-02-12T06:01:30;48.92;;;27.95;;
76900;SDS011;65859;43.020;25.096;2023-02-12T06:03:59;40.17;;;22.05;;
76900;SDS011;65859;43.020;25.096;2023-02-12T06:06:28;30.10;;;14.88;;
76900;SDS011;65859;43.020;25.096;2023-02-12T06:08:55;28.77;;;14.88;;
76900;SDS011;65859;43.020;25.096;2023-02-12T06:11:22;34.75;;;18.52;;
76900;SDS011;65859;43.020;25.096;2023-02-12T06:13:49;27.00;;;13.90;;
76900;SDS011;65859;43.020;25.096;2023-02-12T06:16:24;26.00;;;12.98;;
76900;SDS011;65859;43.020;25.096;2023-02-12T06:18:53;26.65;;;13.65;;
76900;SDS011;65859;43.020;25.096;2023-02-12T06:21:20;28.13;;;15.63;;
76900;SDS011;65859;43.020;25.096;2023-02-12T06:23:48;26.50;;;13.82;;
76900;SDS011;65859;43.020;25.096;2023-02-12T06:26:16;29.33;;;14.45;;
76900;SDS011;65859;43.020;25.096;2023-02-12T06:28:43;29.67;;;13.60;;
76900;SDS011;65859;43.020;25.096;2023-02-12T06:31:20;31.45;;;15.13;;
76900;SDS011;65859;43.020;25.096;2023-02-12T06:33:51;28.13;;;14.88;;
76900;SDS011;65859;43.020;25.096;2023-02-12T06:36:19;27.52;;;15.18;;
76900;SDS011;65859;43.020;25.096;2023-02-12T06:38:46;29.50;;;16.80;;
76900;SDS011;65859;43.020;25.096;2023-02-12T06:41:13;30.50;;;17.35;;
76900;SDS011;65859;43.020;25.096;2023-02-12T06:43:39;32.28;;;15.82;;
76900;SDS011;65859;43.020;25.096;2023-02-12T06:46:05;31.95;;;16.58;;
76900;SDS011;65859;43.020;25.096;2023-02-12T06:48:34;27.83;;;15.40;;
76900;SDS011;65859;43.020;25.096;2023-02-12T06:51:04;28.77;;;15.00;;
76900;SDS011;65859;43.020;25.096;2023-02-12T06:53:33;31.65;;;16.77;;
76900;SDS011;65859;43.020;25.096;2023-02-12T06:56:02;25.13;;;13.27;;
76900;SDS011;65859;43.020;25.096;2023-02-12T06:58:30;32.70;;;18.20;;
76900;SDS011;65859;43.020;25.096;2023-02-12T07:01:06;29.67;;;15.57;;
76900;SDS011;65859;43.020;25.096;2023-02-12T07:03:40;31.98;;;15.60;;
76900;SDS011;65859;43.020;25.096;2023-02-12T07:06:08;31.35;;;16.52;;
76900;SDS011;65859;43.020;25.096;2023-02-12T07:08:35;27.60;;;15.95;;
76900;SDS011;65859;43.020;25.096;2023-02-12T07:11:01;32.42;;;14.60;;
76900;SDS011;65859;43.020;25.096;2023-02-12T07:13:28;25.80;;;14.80;;
76900;SDS011;65859;43.020;25.096;2023-02-12T07:15:55;28.88;;;15.95;;
76900;SDS011;65859;43.020;25.096;2023-02-12T07:18:21;29.52;;;15.68;;
76900;SDS011;65859;43.020;25.096;2023-02-12T07:20:48;28.77;;;15.18;;
76900;SDS011;65859;43.020;25.096;2023-02-12T07:23:15;31.42;;;16.73;;
76900;SDS011;65859;43.020;25.096;2023-02-12T07:25:41;27.35;;;15.95;;
76900;SDS011;65859;43.020;25.096;2023-02-12T07:28:08;29.40;;;16.35;;
76900;SDS011;65859;43.020;25.096;2023-02-12T07:30:34;33.10;;;17.05;;
76900;SDS011;65859;43.020;25.096;2023-02-12T07:33:01;29.95;;;15.18;;
76900;SDS011;65859;43.020;25.096;2023-02-12T07:35:28;27.88;;;15.45;;
76900;SDS011;65859;43.020;25.096;2023-02-12T07:37:54;36.13;;;16.30;;
76900;SDS011;65859;43.020;25.096;2023-02-12T07:40:21;38.22;;;17.10;;
76900;SDS011;65859;43.020;25.096;2023-02-12T07:42:47;39.53;;;19.23;;
76900;SDS011;65859;43.020;25.096;2023-02-12T07:45:19;30.10;;;17.20;;
76900;SDS011;65859;43.020;25.096;2023-02-12T07:47:45;29.10;;;15.65;;
76900;SDS011;65859;43.020;25.096;2023-02-12T07:50:11;29.10;;;15.02;;
76900;SDS011;65859;43.020;25.096;2023-02-12T07:52:39;31.73;;;16.98;;
76900;SDS011;65859;43.020;25.096;2023-02-12T07:55:06;36.30;;;18.35;;
76900;SDS011;65859;43.020;25.096;2023-02-12T07:57:33;32.13;;;17.27;;
76900;SDS011;65859;43.020;25.096;2023-02-12T08:00:00;34.15;;;18.42;;
76900;SDS011;65859;43.020;25.096;2023-02-12T08:02:27;27.25;;;15.90;;
76900;SDS011;65859;43.020;25.096;2023-02-12T08:04:57;31.15;;;17.35;;
76900;SDS011;65859;43.020;25.096;2023-02-12T08:07:23;35.80;;;18.48;;
76900;SDS011;65859;43.020;25.096;2023-02-12T08:09:50;31.75;;;17.42;;
76900;SDS011;65859;43.020;25.096;2023-02-12T08:12:17;35.00;;;17.75;;
76900;SDS011;65859;43.020;25.096;2023-02-12T08:14:44;30.30;;;17.73;;
76900;SDS011;65859;43.020;25.096;2023-02-12T08:17:10;33.47;;;18.08;;
76900;SDS011;65859;43.020;25.096;2023-02-12T08:19:37;29.05;;;17.35;;
76900;SDS011;65859;43.020;25.096;2023-02-12T08:22:03;35.70;;;18.55;;
76900;SDS011;65859;43.020;25.096;2023-02-12T08:24:32;33.15;;;19.00;;
76900;SDS011;65859;43.020;25.096;2023-02-12T08:26:58;42.15;;;19.17;;
76900;SDS011;65859;43.020;25.096;2023-02-12T08:29:26;30.42;;;20.15;;
76900;SDS011;65859;43.020;25.096;2023-02-12T08:31:55;36.80;;;19.25;;
76900;SDS011;65859;43.020;25.096;2023-02-12T08:34:24;35.60;;;20.73;;
76900;SDS011;65859;43.020;25.096;2023-02-12T08:36:55;34.35;;;18.25;;
76900;SDS011;65859;43.020;25.096;2023-02-12T08:39:22;31.92;;;17.33;;
76900;SDS011;65859;43.020;25.096;2023-02-12T08:41:52;36.03;;;18.15;;
76900;SDS011;65859;43.020;25.096;2023-02-12T08:44:19;36.15;;;18.15;;
76900;SDS011;65859;43.020;25.096;2023-02-12T08:46:47;39.67;;;20.23;;
76900;SDS011;65859;43.020;25.096;2023-02-12T08:49:19;40.70;;;19.90;;
76900;SDS011;65859;43.020;25.096;2023-02-12T08:51:48;34.65;;;18.42;;
76900;SDS011;65859;43.020;25.096;2023-02-12T08:54:18;30.98;;;17.02;;
76900;SDS011;65859;43.020;25.096;2023-02-12T08:56:47;34.72;;;18.55;;
76900;SDS011;65859;43.020;25.096;2023-02-12T08:59:14;32.40;;;15.70;;
76900;SDS011;65859;43.020;25.096;2023-02-12T09:01:41;33.80;;;18.65;;
76900;SDS011;65859;43.020;25.096;2023-02-12T09:04:15;45.50;;;21.58;;
76900;SDS011;65859;43.020;25.096;2023-02-12T09:06:51;29.17;;;16.17;;
76900;SDS011;65859;43.020;25.096;2023-02-12T09:09:18;37.67;;;19.23;;
76900;SDS011;65859;43.020;25.096;2023-02-12T09:11:45;31.95;;;16.38;;
76900;SDS011;65859;43.020;25.096;2023-02-12T09:14:13;34.78;;;16.17;;
76900;SDS011;65859;43.020;25.096;2023-02-12T09:16:40;28.92;;;16.15;;
76900;SDS011;65859;43.020;25.096;2023-02-12T09:19:07;28.98;;;17.33;;
76900;SDS011;65859;43.020;25.096;2023-02-12T09:21:38;31.83;;;17.65;;
76900;SDS011;65859;43.020;25.096;2023-02-12T09:24:04;23.95;;;13.93;;
76900;SDS011;65859;43.020;25.096;2023-02-12T09:26:31;37.10;;;21.77;;
76900;SDS011;65859;43.020;25.096;2023-02-12T09:29:00;28.48;;;15.80;;
76900;SDS011;65859;43.020;25.096;2023-02-12T09:31:28;53.15;;;30.23;;
76900;SDS011;65859;43.020;25.096;2023-02-12T09:33:59;41.83;;;20.50;;
76900;SDS011;65859;43.020;25.096;2023-02-12T09:36:27;33.40;;;19.65;;
76900;SDS011;65859;43.020;25.096;2023-02-12T09:38:54;31.92;;;16.33;;
76900;SDS011;65859;43.020;25.096;2023-02-12T09:47:09;51.05;;;23.98;;
76900;SDS011;65859;43.020;25.096;2023-02-12T09:52:17;34.65;;;17.52;;
76900;SDS011;65859;43.020;25.096;2023-02-12T09:54:46;47.58;;;22.25;;
76900;SDS011;65859;43.020;25.096;2023-02-12T09:57:22;40.38;;;19.52;;
76900;SDS011;65859;43.020;25.096;2023-02-12T09:59:57;41.50;;;20.77;;
76900;SDS011;65859;43.020;25.096;2023-02-12T10:02:29;35.47;;;20.17;;
76900;SDS011;65859;43.020;25.096;2023-02-12T10:04:55;39.63;;;21.63;;
76900;SDS011;65859;43.020;25.096;2023-02-12T10:10:38;31.67;;;18.02;;
76900;SDS011;65859;43.020;25.096;2023-02-12T10:24:56;30.30;;;18.75;;
76900;SDS011;65859;43.020;25.096;2023-02-12T10:30:23;34.03;;;19.20;;
76900;SDS011;65859;43.020;25.096;2023-02-12T10:33:11;25.85;;;18.80;;
76900;SDS011;65859;43.020;25.096;2023-02-12T10:35:48;35.08;;;20.35;;
76900;SDS011;65859;43.020;25.096;2023-02-12T10:38:20;33.60;;;18.90;;
76900;SDS011;65859;43.020;25.096;2023-02-12T10:40:53;36.40;;;22.23;;
76900;SDS011;65859;43.020;25.096;2023-02-12T10:43:22;41.42;;;25.67;;
76900;SDS011;65859;43.020;25.096;2023-02-12T10:45:49;30.67;;;18.55;;
76900;SDS011;65859;43.020;25.096;2023-02-12T10:48:20;27.45;;;18.27;;
76900;SDS011;65859;43.020;25.096;2023-02-12T10:53:22;31.75;;;20.63;;
76900;SDS011;65859;43.020;25.096;2023-02-12T10:55:50;36.55;;;21.02;;
76900;SDS011;65859;43.020;25.096;2023-02-12T11:01:24;26.85;;;19.30;;
76900;SDS011;65859;43.020;25.096;2023-02-12T11:06:31;30.35;;;20.17;;
76900;SDS011;65859;43.020;25.096;2023-02-12T11:08:58;27.63;;;19.83;;
76900;SDS011;65859;43.020;25.096;2023-02-12T11:11:26;31.75;;;21.10;;
76900;SDS011;65859;43.020;25.096;2023-02-12T11:16:45;36.58;;;22.80;;
76900;SDS011;65859;43.020;25.096;2023-02-12T11:19:26;34.25;;;21.45;;
76900;SDS011;65859;43.020;25.096;2023-02-12T11:22:08;30.27;;;20.38;;
76900;SDS011;65859;43.020;25.096;2023-02-12T11:24:43;40.38;;;21.52;;
76900;SDS011;65859;43.020;25.096;2023-02-12T11:29:43;34.38;;;20.40;;
76900;SDS011;65859;43.020;25.096;2023-02-12T11:32:17;29.45;;;21.05;;
76900;SDS011;65859;43.020;25.096;2023-02-12T11:35:03;28.05;;;20.65;;
76900;SDS011;65859;43.020;25.096;2023-02-12T11:37:35;32.55;;;20.92;;
76900;SDS011;65859;43.020;25.096;2023-02-12T11:40:12;28.30;;;20.70;;
76900;SDS011;65859;43.020;25.096;2023-02-12T11:42:43;28.13;;;20.55;;
76900;SDS011;65859;43.020;25.096;2023-02-12T11:45:21;29.77;;;22.75;;
76900;SDS011;65859;43.020;25.096;2023-02-12T11:47:54;26.77;;;19.90;;
76900;SDS011;65859;43.020;25.096;2023-02-12T11:50:32;29.88;;;21.70;;
76900;SDS011;65859;43.020;25.096;2023-02-12T11:53:01;26.10;;;20.23;;
76900;SDS011;65859;43.020;25.096;2023-02-12T11:55:39;28.05;;;19.67;;
76900;SDS011;65859;43.020;25.096;2023-02-12T11:58:13;33.30;;;20.52;;
76900;SDS011;65859;43.020;25.096;2023-02-12T12:06:39;29.25;;;21.17;;
76900;SDS011;65859;43.020;25.096;2023-02-12T12:14:27;29.52;;;20.05;;
76900;SDS011;65859;43.020;25.096;2023-02-12T12:17:20;28.60;;;19.25;;
76900;SDS011;65859;43.020;25.096;2023-02-12T12:20:31;29.65;;;19.95;;
76900;SDS011;65859;43.020;25.096;2023-02-12T12:25:47;27.45;;;19.33;;
76900;SDS011;65859;43.020;25.096;2023-02-12T12:28:29;28.67;;;19.95;;
76900;SDS011;65859;43.020;25.096;2023-02-12T12:31:18;24.73;;;17.08;;
76900;SDS011;65859;43.020;25.096;2023-02-12T12:34:02;29.10;;;17.83;;
76900;SDS011;65859;43.020;25.096;2023-02-12T12:39:27;29.65;;;19.48;;
76900;SDS011;65859;43.020;25.096;2023-02-12T12:42:26;30.75;;;18.70;;
76900;SDS011;65859;43.020;25.096;2023-02-12T12:47:32;29.33;;;19.25;;
76900;SDS011;65859;43.020;25.096;2023-02-12T12:52:55;30.67;;;18.00;;
76900;SDS011;65859;43.020;25.096;2023-02-12T13:00:45;23.33;;;16.20;;
76900;SDS011;65859;43.020;25.096;2023-02-12T13:09:00;35.85;;;19.55;;
76900;SDS011;65859;43.020;25.096;2023-02-12T13:14:26;44.90;;;22.10;;
76900;SDS011;65859;43.020;25.096;2023-02-12T13:17:27;38.95;;;20.60;;
76900;SDS011;65859;43.020;25.096;2023-02-12T13:27:42;41.47;;;22.80;;
76900;SDS011;65859;43.020;25.096;2023-02-12T13:32:48;35.85;;;18.90;;
76900;SDS011;65859;43.020;25.096;2023-02-12T13:35:35;25.55;;;15.68;;
76900;SDS011;65859;43.020;25.096;2023-02-12T13:38:06;27.88;;;15.73;;
76900;SDS011;65859;43.020;25.096;2023-02-12T13:40:36;30.42;;;18.08;;
76900;SDS011;65859;43.020;25.096;2023-02-12T13:43:19;29.40;;;18.00;;
76900;SDS011;65859;43.020;25.096;2023-02-12T13:54:30;30.98;;;18.60;;
76900;SDS011;65859;43.020;25.096;2023-02-12T13:57:02;32.72;;;19.50;;
76900;SDS011;65859;43.020;25.096;2023-02-12T14:02:03;34.70;;;19.52;;
76900;SDS011;65859;43.020;25.096;2023-02-12T14:07:40;35.30;;;20.90;;
76900;SDS011;65859;43.020;25.096;2023-02-12T14:10:18;32.65;;;21.20;;
76900;SDS011;65859;43.020;25.096;2023-02-12T14:12:50;34.28;;;20.48;;
76900;SDS011;65859;43.020;25.096;2023-02-12T14:18:05;34.45;;;21.55;;
76900;SDS011;65859;43.020;25.096;2023-02-12T14:20:46;38.28;;;20.75;;
76900;SDS011;65859;43.020;25.096;2023-02-12T14:23:31;35.05;;;22.45;;
76900;SDS011;65859;43.020;25.096;2023-02-12T14:25:58;41.63;;;21.70;;
76900;SDS011;65859;43.020;25.096;2023-02-12T14:28:33;35.38;;;20.77;;
76900;SDS011;65859;43.020;25.096;2023-02-12T14:36:39;42.25;;;26.25;;
76900;SDS011;65859;43.020;25.096;2023-02-12T14:47:03;35.15;;;21.73;;
76900;SDS011;65859;43.020;25.096;2023-02-12T14:49:39;35.72;;;20.35;;
76900;SDS011;65859;43.020;25.096;2023-02-12T14:52:15;32.35;;;19.73;;
76900;SDS011;65859;43.020;25.096;2023-02-12T14:54:53;40.15;;;22.08;;
76900;SDS011;65859;43.020;25.096;2023-02-12T14:57:22;37.58;;;21.80;;
76900;SDS011;65859;43.020;25.096;2023-02-12T14:59:52;41.58;;;22.45;;
76900;SDS011;65859;43.020;25.096;2023-02-12T15:02:27;46.78;;;25.25;;
76900;SDS011;65859;43.020;25.096;2023-02-12T15:04:57;44.25;;;25.02;;
76900;SDS011;65859;43.020;25.096;2023-02-12T15:07:40;37.42;;;21.65;;
76900;SDS011;65859;43.020;25.096;2023-02-12T15:10:20;35.58;;;22.00;;
76900;SDS011;65859;43.020;25.096;2023-02-12T15:26:28;43.03;;;23.75;;
76900;SDS011;65859;43.020;25.096;2023-02-12T15:28:57;41.42;;;25.55;;
76900;SDS011;65859;43.020;25.096;2023-02-12T15:31:25;38.78;;;23.98;;
76900;SDS011;65859;43.020;25.096;2023-02-12T15:33:57;40.60;;;23.88;;
76900;SDS011;65859;43.020;25.096;2023-02-12T15:36:26;40.85;;;24.60;;
76900;SDS011;65859;43.020;25.096;2023-02-12T15:38:58;38.72;;;22.85;;
76900;SDS011;65859;43.020;25.096;2023-02-12T15:47:02;40.33;;;23.60;;
76900;SDS011;65859;43.020;25.096;2023-02-12T15:49:40;38.40;;;23.13;;
76900;SDS011;65859;43.020;25.096;2023-02-12T15:52:17;40.80;;;23.05;;
76900;SDS011;65859;43.020;25.096;2023-02-12T15:54:46;44.45;;;25.42;;
76900;SDS011;65859;43.020;25.096;2023-02-12T15:57:18;41.60;;;24.10;;
76900;SDS011;65859;43.020;25.096;2023-02-12T15:59:50;40.70;;;25.02;;
76900;SDS011;65859;43.020;25.096;2023-02-12T16:02:20;42.63;;;24.70;;
76900;SDS011;65859;43.020;25.096;2023-02-12T16:04:53;41.40;;;25.77;;
76900;SDS011;65859;43.020;25.096;2023-02-12T16:07:21;41.28;;;24.65;;
76900;SDS011;65859;43.020;25.096;2023-02-12T16:09:50;43.60;;;25.23;;
76900;SDS011;65859;43.020;25.096;2023-02-12T16:12:19;42.72;;;25.40;;
76900;SDS011;65859;43.020;25.096;2023-02-12T16:14:53;43.97;;;25.17;;
76900;SDS011;65859;43.020;25.096;2023-02-12T16:22:43;51.38;;;26.33;;
76900;SDS011;65859;43.020;25.096;2023-02-12T16:28:27;43.00;;;26.40;;
76900;SDS011;65859;43.020;25.096;2023-02-12T16:30:42;62.15;;;34.13;;
76900;SDS011;65859;43.020;25.096;2023-02-12T16:36:06;61.08;;;34.22;;
76900;SDS011;65859;43.020;25.096;2023-02-12T16:38:51;62.20;;;35.47;;
76900;SDS011;65859;43.020;25.096;2023-02-12T16:43:44;59.63;;;34.13;;
76900;SDS011;65859;43.020;25.096;2023-02-12T16:46:13;62.95;;;35.33;;
76900;SDS011;65859;43.020;25.096;2023-02-12T16:48:43;66.97;;;38.75;;
76900;SDS011;65859;43.020;25.096;2023-02-12T16:51:26;82.47;;;38.67;;
76900;SDS011;65859;43.020;25.096;2023-02-12T16:54:00;59.47;;;31.73;;
76900;SDS011;65859;43.020;25.096;2023-02-12T16:56:30;54.60;;;33.97;;
76900;SDS011;65859;43.020;25.096;2023-02-12T16:59:01;56.78;;;33.22;;
76900;SDS011;65859;43.020;25.096;2023-02-12T17:03:57;92.82;;;50.42;;
76900;SDS011;65859;43.020;25.096;2023-02-12T17:06:26;97.85;;;54.33;;
76900;SDS011;65859;43.020;25.096;2023-02-12T17:08:55;100.53;;;53.17;;
76900;SDS011;65859;43.020;25.096;2023-02-12T17:11:22;115.57;;;59.58;;
76900;SDS011;65859;43.020;25.096;2023-02-12T17:13:50;129.23;;;70.35;;
76900;SDS011;65859;43.020;25.096;2023-02-12T17:16:22;137.73;;;76.85;;
76900;SDS011;65859;43.020;25.096;2023-02-12T17:18:48;276.63;;;151.15;;
76900;SDS011;65859;43.020;25.096;2023-02-12T17:23:50;177.95;;;97.00;;
76900;SDS011;65859;43.020;25.096;2023-02-12T17:26:19;178.48;;;96.40;;
76900;SDS011;65859;43.020;25.096;2023-02-12T17:28:46;151.55;;;80.25;;
76900;SDS011;65859;43.020;25.096;2023-02-12T17:31:12;130.32;;;70.57;;
76900;SDS011;65859;43.020;25.096;2023-02-12T17:33:39;116.45;;;66.28;;
76900;SDS011;65859;43.020;25.096;2023-02-12T17:36:05;119.85;;;67.80;;
76900;SDS011;65859;43.020;25.096;2023-02-12T17:38:32;125.43;;;72.53;;
76900;SDS011;65859;43.020;25.096;2023-02-12T17:40:58;105.78;;;61.35;;
76900;SDS011;65859;43.020;25.096;2023-02-12T17:43:25;95.43;;;57.17;;
76900;SDS011;65859;43.020;25.096;2023-02-12T17:45:51;335.15;;;160.40;;
76900;SDS011;65859;43.020;25.096;2023-02-12T17:48:19;109.82;;;60.47;;
76900;SDS011;65859;43.020;25.096;2023-02-12T17:50:51;109.25;;;57.38;;
76900;SDS011;65859;43.020;25.096;2023-02-12T17:55:46;71.85;;;38.35;;